Macdona, Texas
Current Conditions -  °F | °C
As of 11:58 PM on Tuesday 21 Oct 2014 (Local Time) from KSKF Reporting Station
Clear Clear  
Wind Chill: 72°   Ceiling: Unl
Heat Index: 72°   Visibility: 10mi
Dew Point: 48°   Wind: 7mph
Humidity: 43%   Direction: 90°E
Pressure: 30.03"   Gusts: NA
Location:  29.33°N, 98.69°W
Report Text: KSKF 220458Z AUTO 09006KT 10SM CLR 22/09 A3003 RMK AO2 SLP163 T02200088 $
Loading
Personal Weather Stations






























Interactive Weather Map
Tropical Storm Tracking
New forecast layout! Learn more

10-Day Weather Forecast

Advertisements
Track Severe Weather on mobile